sensor_id;sensor_type;location;lat;lon;timestamp;P1;durP1;ratioP1;P2;durP2;ratioP2
62572;SDS011;48626;51.678;5.806;2023-04-06T00:01:51;18.35;;;11.25;;
62572;SDS011;48626;51.678;5.806;2023-04-06T00:04:16;17.77;;;10.05;;
62572;SDS011;48626;51.678;5.806;2023-04-06T00:06:42;18.83;;;9.65;;
62572;SDS011;48626;51.678;5.806;2023-04-06T00:09:07;17.45;;;9.82;;
62572;SDS011;48626;51.678;5.806;2023-04-06T00:11:33;16.92;;;9.85;;
62572;SDS011;48626;51.678;5.806;2023-04-06T00:13:59;18.80;;;10.40;;
62572;SDS011;48626;51.678;5.806;2023-04-06T00:16:25;16.38;;;10.27;;
62572;SDS011;48626;51.678;5.806;2023-04-06T00:18:51;15.73;;;9.68;;
62572;SDS011;48626;51.678;5.806;2023-04-06T00:21:16;18.83;;;10.45;;
62572;SDS011;48626;51.678;5.806;2023-04-06T00:23:42;18.50;;;10.80;;
62572;SDS011;48626;51.678;5.806;2023-04-06T00:26:08;20.13;;;11.25;;
62572;SDS011;48626;51.678;5.806;2023-04-06T00:28:36;20.45;;;10.85;;
62572;SDS011;48626;51.678;5.806;2023-04-06T00:31:02;18.48;;;10.05;;
62572;SDS011;48626;51.678;5.806;2023-04-06T00:33:27;17.17;;;10.68;;
62572;SDS011;48626;51.678;5.806;2023-04-06T00:35:53;18.48;;;10.30;;
62572;SDS011;48626;51.678;5.806;2023-04-06T00:38:19;15.10;;;9.48;;
62572;SDS011;48626;51.678;5.806;2023-04-06T00:40:45;19.30;;;10.48;;
62572;SDS011;48626;51.678;5.806;2023-04-06T00:43:11;17.23;;;9.38;;
62572;SDS011;48626;51.678;5.806;2023-04-06T00:45:38;15.25;;;9.40;;
62572;SDS011;48626;51.678;5.806;2023-04-06T00:48:05;17.88;;;9.65;;
62572;SDS011;48626;51.678;5.806;2023-04-06T00:50:32;16.85;;;9.52;;
62572;SDS011;48626;51.678;5.806;2023-04-06T00:53:01;16.73;;;10.18;;
62572;SDS011;48626;51.678;5.806;2023-04-06T00:55:27;16.38;;;9.30;;
62572;SDS011;48626;51.678;5.806;2023-04-06T00:57:53;15.50;;;9.35;;
62572;SDS011;48626;51.678;5.806;2023-04-06T01:00:19;20.10;;;10.45;;
62572;SDS011;48626;51.678;5.806;2023-04-06T01:02:45;16.45;;;9.40;;
62572;SDS011;48626;51.678;5.806;2023-04-06T01:05:12;13.82;;;8.88;;
62572;SDS011;48626;51.678;5.806;2023-04-06T01:07:38;16.83;;;9.95;;
62572;SDS011;48626;51.678;5.806;2023-04-06T01:10:04;18.70;;;10.00;;
62572;SDS011;48626;51.678;5.806;2023-04-06T01:12:30;16.50;;;10.00;;
62572;SDS011;48626;51.678;5.806;2023-04-06T01:14:56;19.30;;;10.13;;
62572;SDS011;48626;51.678;5.806;2023-04-06T01:17:22;18.83;;;9.43;;
62572;SDS011;48626;51.678;5.806;2023-04-06T01:19:47;15.43;;;9.75;;
62572;SDS011;48626;51.678;5.806;2023-04-06T01:22:19;21.45;;;10.38;;
62572;SDS011;48626;51.678;5.806;2023-04-06T01:24:45;19.50;;;9.73;;
62572;SDS011;48626;51.678;5.806;2023-04-06T01:27:11;22.70;;;10.85;;
62572;SDS011;48626;51.678;5.806;2023-04-06T01:29:37;17.48;;;10.20;;
62572;SDS011;48626;51.678;5.806;2023-04-06T01:32:06;18.88;;;10.80;;
62572;SDS011;48626;51.678;5.806;2023-04-06T01:34:33;16.02;;;9.55;;
62572;SDS011;48626;51.678;5.806;2023-04-06T01:36:58;18.25;;;10.27;;
62572;SDS011;48626;51.678;5.806;2023-04-06T01:39:24;18.73;;;9.95;;
62572;SDS011;48626;51.678;5.806;2023-04-06T01:41:50;24.15;;;11.00;;
62572;SDS011;48626;51.678;5.806;2023-04-06T01:44:16;18.00;;;9.88;;
62572;SDS011;48626;51.678;5.806;2023-04-06T01:46:43;21.05;;;10.13;;
62572;SDS011;48626;51.678;5.806;2023-04-06T01:49:11;19.60;;;10.55;;
62572;SDS011;48626;51.678;5.806;2023-04-06T01:51:37;16.98;;;9.88;;
62572;SDS011;48626;51.678;5.806;2023-04-06T01:54:03;17.55;;;10.13;;
62572;SDS011;48626;51.678;5.806;2023-04-06T01:56:29;17.52;;;9.90;;
62572;SDS011;48626;51.678;5.806;2023-04-06T01:58:55;18.05;;;10.48;;
62572;SDS011;48626;51.678;5.806;2023-04-06T02:01:21;17.95;;;9.95;;
62572;SDS011;48626;51.678;5.806;2023-04-06T02:03:47;18.98;;;10.65;;
62572;SDS011;48626;51.678;5.806;2023-04-06T02:06:12;18.80;;;10.23;;
62572;SDS011;48626;51.678;5.806;2023-04-06T02:08:38;21.42;;;11.02;;
62572;SDS011;48626;51.678;5.806;2023-04-06T02:11:04;17.55;;;10.35;;
62572;SDS011;48626;51.678;5.806;2023-04-06T02:13:30;19.65;;;10.20;;
62572;SDS011;48626;51.678;5.806;2023-04-06T02:15:56;16.20;;;9.77;;
62572;SDS011;48626;51.678;5.806;2023-04-06T02:18:22;19.80;;;10.93;;
62572;SDS011;48626;51.678;5.806;2023-04-06T02:20:48;20.83;;;10.57;;
62572;SDS011;48626;51.678;5.806;2023-04-06T02:23:13;16.42;;;9.65;;
62572;SDS011;48626;51.678;5.806;2023-04-06T02:25:39;24.85;;;10.43;;
62572;SDS011;48626;51.678;5.806;2023-04-06T02:28:05;25.52;;;9.73;;
62572;SDS011;48626;51.678;5.806;2023-04-06T02:30:31;17.73;;;9.82;;
62572;SDS011;48626;51.678;5.806;2023-04-06T02:32:57;15.27;;;9.57;;
62572;SDS011;48626;51.678;5.806;2023-04-06T02:35:27;17.75;;;9.40;;
62572;SDS011;48626;51.678;5.806;2023-04-06T02:37:56;26.77;;;10.60;;
62572;SDS011;48626;51.678;5.806;2023-04-06T02:40:22;18.23;;;10.02;;
62572;SDS011;48626;51.678;5.806;2023-04-06T02:42:48;22.33;;;9.88;;
62572;SDS011;48626;51.678;5.806;2023-04-06T02:45:13;19.98;;;10.25;;
62572;SDS011;48626;51.678;5.806;2023-04-06T02:47:39;17.65;;;9.23;;
62572;SDS011;48626;51.678;5.806;2023-04-06T02:50:05;16.35;;;9.15;;
62572;SDS011;48626;51.678;5.806;2023-04-06T02:52:31;17.17;;;10.23;;
62572;SDS011;48626;51.678;5.806;2023-04-06T02:54:57;16.90;;;9.85;;
62572;SDS011;48626;51.678;5.806;2023-04-06T02:57:22;19.73;;;9.85;;
62572;SDS011;48626;51.678;5.806;2023-04-06T02:59:48;18.13;;;10.13;;
62572;SDS011;48626;51.678;5.806;2023-04-06T03:02:14;17.40;;;9.45;;
62572;SDS011;48626;51.678;5.806;2023-04-06T03:04:40;17.13;;;9.93;;
62572;SDS011;48626;51.678;5.806;2023-04-06T03:07:06;16.27;;;9.82;;
62572;SDS011;48626;51.678;5.806;2023-04-06T03:09:32;18.85;;;10.48;;
62572;SDS011;48626;51.678;5.806;2023-04-06T03:11:58;19.08;;;9.93;;
62572;SDS011;48626;51.678;5.806;2023-04-06T03:14:23;21.60;;;10.35;;
62572;SDS011;48626;51.678;5.806;2023-04-06T03:16:49;18.05;;;9.88;;
62572;SDS011;48626;51.678;5.806;2023-04-06T03:19:15;23.08;;;10.02;;
62572;SDS011;48626;51.678;5.806;2023-04-06T03:21:41;20.25;;;10.27;;
62572;SDS011;48626;51.678;5.806;2023-04-06T03:24:07;18.75;;;10.57;;
62572;SDS011;48626;51.678;5.806;2023-04-06T03:26:33;19.08;;;10.32;;
62572;SDS011;48626;51.678;5.806;2023-04-06T03:28:59;18.50;;;10.00;;
62572;SDS011;48626;51.678;5.806;2023-04-06T03:31:25;18.83;;;10.32;;
62572;SDS011;48626;51.678;5.806;2023-04-06T03:33:51;18.90;;;9.88;;
62572;SDS011;48626;51.678;5.806;2023-04-06T03:36:17;18.75;;;10.43;;
62572;SDS011;48626;51.678;5.806;2023-04-06T03:38:43;19.13;;;10.60;;
62572;SDS011;48626;51.678;5.806;2023-04-06T03:41:09;21.75;;;10.65;;
62572;SDS011;48626;51.678;5.806;2023-04-06T03:43:35;18.13;;;10.40;;
62572;SDS011;48626;51.678;5.806;2023-04-06T03:46:00;19.77;;;11.00;;
62572;SDS011;48626;51.678;5.806;2023-04-06T03:48:26;20.40;;;10.98;;
62572;SDS011;48626;51.678;5.806;2023-04-06T03:50:52;21.02;;;10.48;;
62572;SDS011;48626;51.678;5.806;2023-04-06T03:53:17;19.83;;;11.18;;
62572;SDS011;48626;51.678;5.806;2023-04-06T03:55:43;17.77;;;10.10;;
62572;SDS011;48626;51.678;5.806;2023-04-06T03:58:09;17.50;;;10.43;;
62572;SDS011;48626;51.678;5.806;2023-04-06T04:00:34;22.40;;;11.25;;
62572;SDS011;48626;51.678;5.806;2023-04-06T04:03:01;19.20;;;10.45;;
62572;SDS011;48626;51.678;5.806;2023-04-06T04:05:27;20.65;;;10.63;;
62572;SDS011;48626;51.678;5.806;2023-04-06T04:07:54;19.20;;;10.35;;
62572;SDS011;48626;51.678;5.806;2023-04-06T04:10:20;19.00;;;11.13;;
62572;SDS011;48626;51.678;5.806;2023-04-06T04:12:46;21.45;;;11.10;;
62572;SDS011;48626;51.678;5.806;2023-04-06T04:15:11;22.70;;;11.07;;
62572;SDS011;48626;51.678;5.806;2023-04-06T04:17:37;22.55;;;10.82;;
62572;SDS011;48626;51.678;5.806;2023-04-06T04:20:03;20.92;;;10.00;;
62572;SDS011;48626;51.678;5.806;2023-04-06T04:22:29;24.00;;;11.30;;
62572;SDS011;48626;51.678;5.806;2023-04-06T04:24:55;19.73;;;10.65;;
62572;SDS011;48626;51.678;5.806;2023-04-06T04:27:21;24.05;;;11.15;;
62572;SDS011;48626;51.678;5.806;2023-04-06T04:29:47;19.00;;;10.73;;
62572;SDS011;48626;51.678;5.806;2023-04-06T04:32:13;19.90;;;10.98;;
62572;SDS011;48626;51.678;5.806;2023-04-06T04:34:39;21.42;;;11.30;;
62572;SDS011;48626;51.678;5.806;2023-04-06T04:37:07;18.48;;;10.23;;
62572;SDS011;48626;51.678;5.806;2023-04-06T04:39:33;19.75;;;11.32;;
62572;SDS011;48626;51.678;5.806;2023-04-06T04:41:59;17.77;;;10.75;;
62572;SDS011;48626;51.678;5.806;2023-04-06T04:44:24;22.63;;;10.80;;
62572;SDS011;48626;51.678;5.806;2023-04-06T04:46:50;25.10;;;11.23;;
62572;SDS011;48626;51.678;5.806;2023-04-06T04:49:17;19.60;;;10.60;;
62572;SDS011;48626;51.678;5.806;2023-04-06T04:51:43;23.92;;;11.15;;
62572;SDS011;48626;51.678;5.806;2023-04-06T04:54:09;23.10;;;11.57;;
62572;SDS011;48626;51.678;5.806;2023-04-06T04:56:34;21.65;;;12.73;;
62572;SDS011;48626;51.678;5.806;2023-04-06T04:59:00;26.25;;;11.63;;
62572;SDS011;48626;51.678;5.806;2023-04-06T05:01:27;23.17;;;12.68;;
62572;SDS011;48626;51.678;5.806;2023-04-06T05:03:52;28.45;;;12.05;;
62572;SDS011;48626;51.678;5.806;2023-04-06T05:06:19;24.92;;;11.93;;
62572;SDS011;48626;51.678;5.806;2023-04-06T05:08:45;20.83;;;11.30;;
62572;SDS011;48626;51.678;5.806;2023-04-06T05:11:11;20.98;;;12.50;;
62572;SDS011;48626;51.678;5.806;2023-04-06T05:13:37;20.15;;;12.20;;
62572;SDS011;48626;51.678;5.806;2023-04-06T05:16:03;20.92;;;11.40;;
62572;SDS011;48626;51.678;5.806;2023-04-06T05:18:29;23.17;;;11.82;;
62572;SDS011;48626;51.678;5.806;2023-04-06T05:20:55;25.08;;;12.20;;
62572;SDS011;48626;51.678;5.806;2023-04-06T05:23:21;18.63;;;11.55;;
62572;SDS011;48626;51.678;5.806;2023-04-06T05:25:47;23.48;;;13.32;;
62572;SDS011;48626;51.678;5.806;2023-04-06T05:28:14;25.90;;;12.70;;
62572;SDS011;48626;51.678;5.806;2023-04-06T05:30:41;26.48;;;12.90;;
62572;SDS011;48626;51.678;5.806;2023-04-06T05:33:07;26.83;;;13.02;;
62572;SDS011;48626;51.678;5.806;2023-04-06T05:35:35;23.77;;;11.50;;
62572;SDS011;48626;51.678;5.806;2023-04-06T05:38:00;21.17;;;11.90;;
62572;SDS011;48626;51.678;5.806;2023-04-06T05:40:26;20.75;;;11.93;;
62572;SDS011;48626;51.678;5.806;2023-04-06T05:42:53;23.80;;;12.85;;
62572;SDS011;48626;51.678;5.806;2023-04-06T05:45:19;24.52;;;12.63;;
62572;SDS011;48626;51.678;5.806;2023-04-06T05:47:46;23.83;;;12.52;;
62572;SDS011;48626;51.678;5.806;2023-04-06T05:50:15;34.10;;;14.70;;
62572;SDS011;48626;51.678;5.806;2023-04-06T05:52:41;21.58;;;12.88;;
62572;SDS011;48626;51.678;5.806;2023-04-06T05:55:09;23.08;;;13.18;;
62572;SDS011;48626;51.678;5.806;2023-04-06T05:57:36;25.15;;;13.20;;
62572;SDS011;48626;51.678;5.806;2023-04-06T06:00:02;26.40;;;12.80;;
62572;SDS011;48626;51.678;5.806;2023-04-06T06:02:32;24.67;;;13.55;;
62572;SDS011;48626;51.678;5.806;2023-04-06T06:04:58;20.02;;;12.57;;
62572;SDS011;48626;51.678;5.806;2023-04-06T06:07:24;25.80;;;13.77;;
62572;SDS011;48626;51.678;5.806;2023-04-06T06:09:50;30.30;;;15.25;;
62572;SDS011;48626;51.678;5.806;2023-04-06T06:12:16;25.13;;;13.85;;
62572;SDS011;48626;51.678;5.806;2023-04-06T06:14:42;24.40;;;14.05;;
62572;SDS011;48626;51.678;5.806;2023-04-06T06:17:08;26.48;;;14.77;;
62572;SDS011;48626;51.678;5.806;2023-04-06T06:19:33;27.20;;;13.60;;
62572;SDS011;48626;51.678;5.806;2023-04-06T06:21:59;27.95;;;13.80;;
62572;SDS011;48626;51.678;5.806;2023-04-06T06:24:27;24.38;;;13.77;;
62572;SDS011;48626;51.678;5.806;2023-04-06T06:26:53;24.83;;;13.02;;
62572;SDS011;48626;51.678;5.806;2023-04-06T06:29:19;25.67;;;12.63;;
62572;SDS011;48626;51.678;5.806;2023-04-06T06:31:45;27.30;;;13.88;;
62572;SDS011;48626;51.678;5.806;2023-04-06T06:34:11;22.65;;;13.57;;
62572;SDS011;48626;51.678;5.806;2023-04-06T06:36:38;25.52;;;13.18;;
62572;SDS011;48626;51.678;5.806;2023-04-06T06:39:03;24.98;;;13.45;;
62572;SDS011;48626;51.678;5.806;2023-04-06T06:41:29;27.83;;;13.25;;
62572;SDS011;48626;51.678;5.806;2023-04-06T06:43:55;25.23;;;14.00;;
62572;SDS011;48626;51.678;5.806;2023-04-06T06:46:20;24.70;;;12.60;;
62572;SDS011;48626;51.678;5.806;2023-04-06T06:48:46;24.58;;;12.35;;
62572;SDS011;48626;51.678;5.806;2023-04-06T06:51:12;24.45;;;12.45;;
62572;SDS011;48626;51.678;5.806;2023-04-06T06:53:38;24.42;;;12.20;;
62572;SDS011;48626;51.678;5.806;2023-04-06T06:56:04;24.13;;;11.82;;
62572;SDS011;48626;51.678;5.806;2023-04-06T06:58:30;21.38;;;12.05;;
62572;SDS011;48626;51.678;5.806;2023-04-06T07:00:56;24.20;;;13.27;;
62572;SDS011;48626;51.678;5.806;2023-04-06T07:03:23;25.27;;;12.98;;
62572;SDS011;48626;51.678;5.806;2023-04-06T07:05:49;22.67;;;12.65;;
62572;SDS011;48626;51.678;5.806;2023-04-06T07:08:18;26.48;;;11.77;;
62572;SDS011;48626;51.678;5.806;2023-04-06T07:10:49;24.15;;;11.48;;
62572;SDS011;48626;51.678;5.806;2023-04-06T07:13:17;28.33;;;12.20;;
62572;SDS011;48626;51.678;5.806;2023-04-06T07:15:47;24.08;;;12.48;;
62572;SDS011;48626;51.678;5.806;2023-04-06T07:18:14;25.92;;;12.15;;
62572;SDS011;48626;51.678;5.806;2023-04-06T07:20:40;22.67;;;11.98;;
62572;SDS011;48626;51.678;5.806;2023-04-06T07:23:06;22.45;;;12.40;;
62572;SDS011;48626;51.678;5.806;2023-04-06T07:25:32;23.20;;;11.70;;
62572;SDS011;48626;51.678;5.806;2023-04-06T07:27:58;22.23;;;12.35;;
62572;SDS011;48626;51.678;5.806;2023-04-06T07:30:24;23.90;;;12.95;;
62572;SDS011;48626;51.678;5.806;2023-04-06T07:32:52;25.75;;;13.40;;
62572;SDS011;48626;51.678;5.806;2023-04-06T07:35:20;28.60;;;12.82;;
62572;SDS011;48626;51.678;5.806;2023-04-06T07:37:46;23.90;;;11.95;;
62572;SDS011;48626;51.678;5.806;2023-04-06T07:40:12;21.65;;;12.50;;
62572;SDS011;48626;51.678;5.806;2023-04-06T07:42:38;22.80;;;11.73;;
62572;SDS011;48626;51.678;5.806;2023-04-06T07:45:03;31.38;;;12.50;;
62572;SDS011;48626;51.678;5.806;2023-04-06T07:47:29;21.73;;;12.60;;
62572;SDS011;48626;51.678;5.806;2023-04-06T07:49:55;23.13;;;12.07;;
62572;SDS011;48626;51.678;5.806;2023-04-06T07:52:21;23.20;;;12.23;;
62572;SDS011;48626;51.678;5.806;2023-04-06T07:54:46;29.77;;;12.55;;
62572;SDS011;48626;51.678;5.806;2023-04-06T07:57:14;25.20;;;12.23;;
62572;SDS011;48626;51.678;5.806;2023-04-06T07:59:40;22.63;;;11.57;;
62572;SDS011;48626;51.678;5.806;2023-04-06T08:02:05;21.10;;;11.82;;
62572;SDS011;48626;51.678;5.806;2023-04-06T08:04:31;24.58;;;12.93;;
62572;SDS011;48626;51.678;5.806;2023-04-06T08:06:57;23.05;;;13.27;;
62572;SDS011;48626;51.678;5.806;2023-04-06T08:09:23;21.58;;;11.32;;
62572;SDS011;48626;51.678;5.806;2023-04-06T08:11:48;26.83;;;12.25;;
62572;SDS011;48626;51.678;5.806;2023-04-06T08:14:14;21.27;;;11.85;;
62572;SDS011;48626;51.678;5.806;2023-04-06T08:16:41;33.30;;;12.02;;
62572;SDS011;48626;51.678;5.806;2023-04-06T08:19:07;19.58;;;10.95;;
62572;SDS011;48626;51.678;5.806;2023-04-06T08:21:34;22.10;;;12.20;;
62572;SDS011;48626;51.678;5.806;2023-04-06T08:24:00;22.08;;;12.30;;
62572;SDS011;48626;51.678;5.806;2023-04-06T08:26:27;19.85;;;11.10;;
62572;SDS011;48626;51.678;5.806;2023-04-06T08:28:53;25.13;;;12.15;;
62572;SDS011;48626;51.678;5.806;2023-04-06T08:31:19;20.67;;;11.23;;
62572;SDS011;48626;51.678;5.806;2023-04-06T08:33:45;25.23;;;12.45;;
62572;SDS011;48626;51.678;5.806;2023-04-06T08:36:11;21.77;;;12.13;;
62572;SDS011;48626;51.678;5.806;2023-04-06T08:38:38;20.20;;;11.75;;
62572;SDS011;48626;51.678;5.806;2023-04-06T08:41:12;22.25;;;11.52;;
62572;SDS011;48626;51.678;5.806;2023-04-06T08:43:41;23.05;;;12.15;;
62572;SDS011;48626;51.678;5.806;2023-04-06T08:46:21;19.95;;;11.27;;
62572;SDS011;48626;51.678;5.806;2023-04-06T08:48:54;21.98;;;11.43;;
62572;SDS011;48626;51.678;5.806;2023-04-06T08:51:21;19.13;;;11.90;;
62572;SDS011;48626;51.678;5.806;2023-04-06T08:53:48;26.70;;;12.43;;
62572;SDS011;48626;51.678;5.806;2023-04-06T08:56:15;23.77;;;12.65;;
62572;SDS011;48626;51.678;5.806;2023-04-06T08:58:41;23.35;;;13.48;;
62572;SDS011;48626;51.678;5.806;2023-04-06T09:01:08;24.52;;;12.98;;
62572;SDS011;48626;51.678;5.806;2023-04-06T09:03:38;26.77;;;12.18;;
62572;SDS011;48626;51.678;5.806;2023-04-06T09:06:05;22.75;;;12.45;;
62572;SDS011;48626;51.678;5.806;2023-04-06T09:08:35;27.55;;;13.10;;
62572;SDS011;48626;51.678;5.806;2023-04-06T09:11:03;23.27;;;11.93;;
62572;SDS011;48626;51.678;5.806;2023-04-06T09:13:31;21.55;;;12.93;;
62572;SDS011;48626;51.678;5.806;2023-04-06T09:15:58;26.92;;;12.93;;
62572;SDS011;48626;51.678;5.806;2023-04-06T09:18:31;23.65;;;12.57;;
62572;SDS011;48626;51.678;5.806;2023-04-06T09:21:01;24.07;;;13.37;;
62572;SDS011;48626;51.678;5.806;2023-04-06T09:23:28;26.15;;;12.80;;
62572;SDS011;48626;51.678;5.806;2023-04-06T09:26:04;21.92;;;13.15;;
62572;SDS011;48626;51.678;5.806;2023-04-06T09:28:48;22.50;;;11.95;;
62572;SDS011;48626;51.678;5.806;2023-04-06T09:31:32;27.30;;;13.30;;
62572;SDS011;48626;51.678;5.806;2023-04-06T09:33:58;21.80;;;12.80;;
62572;SDS011;48626;51.678;5.806;2023-04-06T09:36:31;28.77;;;13.27;;
62572;SDS011;48626;51.678;5.806;2023-04-06T09:38:59;25.25;;;13.18;;
62572;SDS011;48626;51.678;5.806;2023-04-06T09:41:30;23.83;;;13.50;;
62572;SDS011;48626;51.678;5.806;2023-04-06T09:44:01;20.88;;;12.55;;
62572;SDS011;48626;51.678;5.806;2023-04-06T09:46:31;22.17;;;12.35;;
62572;SDS011;48626;51.678;5.806;2023-04-06T09:48:59;25.58;;;12.90;;
62572;SDS011;48626;51.678;5.806;2023-04-06T09:51:30;31.50;;;14.10;;
62572;SDS011;48626;51.678;5.806;2023-04-06T09:54:00;31.55;;;13.38;;
62572;SDS011;48626;51.678;5.806;2023-04-06T09:56:30;23.55;;;13.55;;
62572;SDS011;48626;51.678;5.806;2023-04-06T09:59:18;24.48;;;13.20;;
62572;SDS011;48626;51.678;5.806;2023-04-06T10:02:04;24.52;;;13.20;;
62572;SDS011;48626;51.678;5.806;2023-04-06T10:07:00;22.85;;;12.93;;
62572;SDS011;48626;51.678;5.806;2023-04-06T10:09:28;21.70;;;13.15;;
62572;SDS011;48626;51.678;5.806;2023-04-06T10:12:02;25.45;;;12.93;;
62572;SDS011;48626;51.678;5.806;2023-04-06T10:14:34;23.55;;;12.52;;
62572;SDS011;48626;51.678;5.806;2023-04-06T10:17:03;23.27;;;13.15;;
62572;SDS011;48626;51.678;5.806;2023-04-06T10:22:22;21.75;;;12.40;;
62572;SDS011;48626;51.678;5.806;2023-04-06T10:24:54;24.00;;;12.15;;
62572;SDS011;48626;51.678;5.806;2023-04-06T10:27:28;21.73;;;11.57;;
62572;SDS011;48626;51.678;5.806;2023-04-06T10:30:00;21.40;;;11.98;;
62572;SDS011;48626;51.678;5.806;2023-04-06T10:32:32;21.15;;;11.88;;
62572;SDS011;48626;51.678;5.806;2023-04-06T10:37:45;20.52;;;11.27;;
62572;SDS011;48626;51.678;5.806;2023-04-06T10:40:21;19.65;;;12.05;;
62572;SDS011;48626;51.678;5.806;2023-04-06T10:42:50;27.90;;;11.55;;
62572;SDS011;48626;51.678;5.806;2023-04-06T10:45:24;19.40;;;11.60;;
62572;SDS011;48626;51.678;5.806;2023-04-06T10:47:54;18.77;;;11.23;;
62572;SDS011;48626;51.678;5.806;2023-04-06T10:50:21;20.58;;;12.15;;
62572;SDS011;48626;51.678;5.806;2023-04-06T10:52:58;20.23;;;11.85;;
62572;SDS011;48626;51.678;5.806;2023-04-06T10:55:25;18.92;;;11.13;;
62572;SDS011;48626;51.678;5.806;2023-04-06T10:57:53;15.32;;;10.55;;
62572;SDS011;48626;51.678;5.806;2023-04-06T11:00:19;17.27;;;10.30;;
62572;SDS011;48626;51.678;5.806;2023-04-06T11:02:45;19.55;;;10.48;;
62572;SDS011;48626;51.678;5.806;2023-04-06T11:05:11;18.80;;;10.40;;
62572;SDS011;48626;51.678;5.806;2023-04-06T11:07:38;15.88;;;10.50;;
62572;SDS011;48626;51.678;5.806;2023-04-06T11:10:05;18.02;;;9.85;;
62572;SDS011;48626;51.678;5.806;2023-04-06T11:12:32;15.13;;;8.98;;
62572;SDS011;48626;51.678;5.806;2023-04-06T11:14:59;14.35;;;8.70;;
62572;SDS011;48626;51.678;5.806;2023-04-06T11:17:35;14.02;;;8.65;;
62572;SDS011;48626;51.678;5.806;2023-04-06T11:20:02;15.13;;;8.52;;
62572;SDS011;48626;51.678;5.806;2023-04-06T11:22:30;14.93;;;8.43;;
62572;SDS011;48626;51.678;5.806;2023-04-06T11:25:06;15.82;;;8.23;;
62572;SDS011;48626;51.678;5.806;2023-04-06T11:27:35;16.50;;;8.23;;
62572;SDS011;48626;51.678;5.806;2023-04-06T11:30:01;11.48;;;7.32;;
62572;SDS011;48626;51.678;5.806;2023-04-06T11:32:27;14.18;;;7.82;;
62572;SDS011;48626;51.678;5.806;2023-04-06T11:34:53;12.20;;;6.97;;
62572;SDS011;48626;51.678;5.806;2023-04-06T11:37:19;13.05;;;6.38;;
62572;SDS011;48626;51.678;5.806;2023-04-06T11:42:25;9.65;;;6.00;;
62572;SDS011;48626;51.678;5.806;2023-04-06T11:44:56;11.50;;;5.93;;
62572;SDS011;48626;51.678;5.806;2023-04-06T11:50:04;9.82;;;5.57;;
62572;SDS011;48626;51.678;5.806;2023-04-06T11:52:33;10.80;;;5.90;;
62572;SDS011;48626;51.678;5.806;2023-04-06T11:54:58;11.25;;;5.50;;
62572;SDS011;48626;51.678;5.806;2023-04-06T11:57:36;9.82;;;5.55;;
62572;SDS011;48626;51.678;5.806;2023-04-06T12:00:02;9.70;;;5.70;;
62572;SDS011;48626;51.678;5.806;2023-04-06T12:02:28;11.23;;;6.25;;
62572;SDS011;48626;51.678;5.806;2023-04-06T12:04:54;9.00;;;5.40;;
62572;SDS011;48626;51.678;5.806;2023-04-06T12:07:20;10.32;;;5.45;;
62572;SDS011;48626;51.678;5.806;2023-04-06T12:09:45;8.23;;;4.82;;
62572;SDS011;48626;51.678;5.806;2023-04-06T12:12:11;10.60;;;5.60;;
62572;SDS011;48626;51.678;5.806;2023-04-06T12:14:36;8.70;;;5.47;;
62572;SDS011;48626;51.678;5.806;2023-04-06T12:17:02;12.23;;;5.97;;
62572;SDS011;48626;51.678;5.806;2023-04-06T12:19:28;8.75;;;5.28;;
62572;SDS011;48626;51.678;5.806;2023-04-06T12:21:54;9.07;;;5.28;;
62572;SDS011;48626;51.678;5.806;2023-04-06T12:24:20;10.73;;;5.15;;
62572;SDS011;48626;51.678;5.806;2023-04-06T12:26:46;10.48;;;5.75;;
62572;SDS011;48626;51.678;5.806;2023-04-06T12:29:11;9.90;;;5.00;;
62572;SDS011;48626;51.678;5.806;2023-04-06T12:31:38;8.80;;;5.35;;
62572;SDS011;48626;51.678;5.806;2023-04-06T12:34:06;9.40;;;5.88;;
62572;SDS011;48626;51.678;5.806;2023-04-06T12:36:34;8.85;;;5.30;;
62572;SDS011;48626;51.678;5.806;2023-04-06T12:39:05;13.15;;;5.60;;
62572;SDS011;48626;51.678;5.806;2023-04-06T12:41:31;10.63;;;5.70;;
62572;SDS011;48626;51.678;5.806;2023-04-06T12:43:57;9.35;;;5.32;;
62572;SDS011;48626;51.678;5.806;2023-04-06T12:46:24;8.43;;;5.47;;
62572;SDS011;48626;51.678;5.806;2023-04-06T12:48:50;10.30;;;5.65;;
62572;SDS011;48626;51.678;5.806;2023-04-06T12:51:20;9.25;;;5.60;;
62572;SDS011;48626;51.678;5.806;2023-04-06T12:53:47;9.68;;;5.85;;
62572;SDS011;48626;51.678;5.806;2023-04-06T12:56:14;13.40;;;6.60;;
62572;SDS011;48626;51.678;5.806;2023-04-06T12:58:42;9.77;;;6.10;;
62572;SDS011;48626;51.678;5.806;2023-04-06T13:01:09;10.10;;;6.03;;
62572;SDS011;48626;51.678;5.806;2023-04-06T13:03:37;9.77;;;6.20;;
62572;SDS011;48626;51.678;5.806;2023-04-06T13:06:03;9.75;;;6.18;;
62572;SDS011;48626;51.678;5.806;2023-04-06T13:08:29;9.95;;;6.35;;
62572;SDS011;48626;51.678;5.806;2023-04-06T13:10:55;11.93;;;6.63;;
62572;SDS011;48626;51.678;5.806;2023-04-06T13:13:25;11.10;;;6.82;;
62572;SDS011;48626;51.678;5.806;2023-04-06T13:18:18;11.40;;;6.80;;
62572;SDS011;48626;51.678;5.806;2023-04-06T13:20:45;13.02;;;7.20;;
62572;SDS011;48626;51.678;5.806;2023-04-06T13:23:12;12.98;;;7.65;;
62572;SDS011;48626;51.678;5.806;2023-04-06T13:25:38;14.48;;;7.93;;
62572;SDS011;48626;51.678;5.806;2023-04-06T13:28:04;15.13;;;7.30;;
62572;SDS011;48626;51.678;5.806;2023-04-06T13:30:29;12.68;;;7.70;;
62572;SDS011;48626;51.678;5.806;2023-04-06T13:32:55;16.02;;;7.97;;
62572;SDS011;48626;51.678;5.806;2023-04-06T13:35:21;13.75;;;7.78;;
62572;SDS011;48626;51.678;5.806;2023-04-06T13:37:46;16.20;;;8.00;;
62572;SDS011;48626;51.678;5.806;2023-04-06T13:40:13;12.55;;;7.35;;
62572;SDS011;48626;51.678;5.806;2023-04-06T13:42:39;13.40;;;7.80;;
62572;SDS011;48626;51.678;5.806;2023-04-06T13:45:06;12.45;;;7.82;;
62572;SDS011;48626;51.678;5.806;2023-04-06T13:47:32;12.55;;;7.50;;
62572;SDS011;48626;51.678;5.806;2023-04-06T13:49:58;16.10;;;8.52;;
62572;SDS011;48626;51.678;5.806;2023-04-06T13:52:24;11.68;;;7.50;;
62572;SDS011;48626;51.678;5.806;2023-04-06T13:54:50;15.35;;;8.10;;
62572;SDS011;48626;51.678;5.806;2023-04-06T13:57:15;17.00;;;8.07;;
62572;SDS011;48626;51.678;5.806;2023-04-06T13:59:42;13.35;;;6.85;;
62572;SDS011;48626;51.678;5.806;2023-04-06T14:02:08;11.63;;;7.22;;
62572;SDS011;48626;51.678;5.806;2023-04-06T14:04:36;14.50;;;7.82;;
62572;SDS011;48626;51.678;5.806;2023-04-06T14:07:02;15.18;;;7.28;;
62572;SDS011;48626;51.678;5.806;2023-04-06T14:09:29;13.20;;;7.10;;
62572;SDS011;48626;51.678;5.806;2023-04-06T14:11:55;11.65;;;7.13;;
62572;SDS011;48626;51.678;5.806;2023-04-06T14:14:21;13.32;;;7.47;;
62572;SDS011;48626;51.678;5.806;2023-04-06T14:16:48;13.48;;;7.10;;
62572;SDS011;48626;51.678;5.806;2023-04-06T14:19:15;11.32;;;7.22;;
62572;SDS011;48626;51.678;5.806;2023-04-06T14:21:43;11.80;;;7.30;;
62572;SDS011;48626;51.678;5.806;2023-04-06T14:24:14;12.80;;;7.10;;
62572;SDS011;48626;51.678;5.806;2023-04-06T14:26:41;11.02;;;7.15;;
62572;SDS011;48626;51.678;5.806;2023-04-06T14:29:08;13.15;;;7.47;;
62572;SDS011;48626;51.678;5.806;2023-04-06T14:31:34;11.48;;;7.65;;
62572;SDS011;48626;51.678;5.806;2023-04-06T14:34:01;11.65;;;7.40;;
62572;SDS011;48626;51.678;5.806;2023-04-06T14:36:28;11.23;;;7.28;;
62572;SDS011;48626;51.678;5.806;2023-04-06T14:39:01;11.63;;;6.93;;
62572;SDS011;48626;51.678;5.806;2023-04-06T14:41:29;11.32;;;6.82;;